New Caney, Texas
Current Conditions -  °F | °C
As of 11:53 AM on Wednesday 28 Jan 2015 (Local Time) from KIAH Reporting Station
Few Clouds Few Clouds  
Wind Chill: 75°   Ceiling: Unl
Heat Index: 75°   Visibility: 10mi
Dew Point: 44°   Wind: 3mph
Humidity: 33%   Direction: NA
Pressure: 30.2"   Gusts: NA
Location:  30.16°N, 95.21°W
Report Text: KIAH 281753Z VRB03KT 10SM FEW250 24/07 A3020 RMK AO2 SLP225 T02390067 10239 20061 58001
Loading
Personal Weather Stations






























Interactive Weather Map New forecast layout! Learn more

10-Day Weather Forecast

Advertisements
Track Severe Weather on mobile